Time;durP1;ratioP1;P1;durP2;ratioP2;P2;SDS_P1;SDS_P2;PMS_P1;PMS_P2;Temp;Humidity;BMP_temperature;BMP_pressure;BME280_temperature;BME280_humidity;BME280_pressure;Samples;Min_cycle;Max_cycle;Signal;HPM_P1;HPM_P2
2023/08/09 00:00:19;;;;;;;10.30;5.22;;;13.10;99.90;;;;;;4972782;28;20054;-65
2023/08/09 00:02:46;;;;;;;6.57;4.75;;;13.20;99.90;;;;;;4973129;28;20114;-65
2023/08/09 00:05:13;;;;;;;11.25;5.90;;;13.10;99.90;;;;;;4973214;28;20637;-62
2023/08/09 00:07:40;;;;;;;8.55;5.47;;;13.00;99.90;;;;;;4989500;28;20071;-65
2023/08/09 00:10:08;;;;;;;8.55;5.63;;;13.00;99.90;;;;;;4989105;28;20363;-63
2023/08/09 00:12:35;;;;;;;6.78;5.07;;;13.10;99.90;;;;;;4973340;28;20047;-66
2023/08/09 00:15:03;;;;;;;10.18;5.38;;;13.00;99.90;;;;;;4989735;28;20081;-66
2023/08/09 00:17:29;;;;;;;8.70;5.72;;;13.00;99.90;;;;;;4988909;28;20089;-64
2023/08/09 00:19:56;;;;;;;9.20;6.05;;;13.00;99.90;;;;;;4989985;28;20068;-66
2023/08/09 00:22:23;;;;;;;6.43;5.35;;;12.90;99.90;;;;;;4972926;28;20065;-66
2023/08/09 00:24:49;;;;;;;8.35;5.60;;;12.90;99.90;;;;;;4973109;28;20138;-67
2023/08/09 00:27:16;;;;;;;8.88;6.13;;;12.90;99.90;;;;;;4989622;28;20431;-65
2023/08/09 00:29:43;;;;;;;7.90;5.93;;;12.80;99.90;;;;;;4974353;28;20061;-65
2023/08/09 00:32:10;;;;;;;8.93;6.25;;;12.90;99.90;;;;;;4976125;28;20062;-66
2023/08/09 00:34:36;;;;;;;6.18;5.07;;;12.80;99.90;;;;;;4960230;28;20056;-66
2023/08/09 00:37:04;;;;;;;7.50;5.60;;;12.90;99.90;;;;;;4975382;28;20050;-66
2023/08/09 00:39:31;;;;;;;9.10;5.97;;;12.80;99.90;;;;;;4993058;28;20068;-66
2023/08/09 00:41:58;;;;;;;10.05;6.28;;;12.80;99.90;;;;;;4993233;28;20156;-65
2023/08/09 00:44:27;;;;;;;10.40;6.73;;;12.80;99.90;;;;;;4946787;28;1322213;-65
2023/08/09 00:46:53;;;;;;;10.00;6.72;;;12.80;99.90;;;;;;5013261;28;20069;-66
2023/08/09 00:49:20;;;;;;;12.27;7.28;;;12.60;99.90;;;;;;4996814;28;20474;-66
2023/08/09 00:51:49;;;;;;;11.93;6.55;;;12.70;99.90;;;;;;5012495;28;20461;-65
2023/08/09 00:54:16;;;;;;;11.10;6.90;;;12.70;99.90;;;;;;5014171;28;20068;-65
2023/08/09 00:56:44;;;;;;;9.38;7.28;;;12.60;99.90;;;;;;5014029;28;20060;-66
2023/08/09 00:59:11;;;;;;;11.30;7.65;;;12.60;99.90;;;;;;4980797;28;20474;-65
2023/08/09 01:01:39;;;;;;;8.88;6.38;;;12.50;99.90;;;;;;4996519;28;20125;-65
2023/08/09 01:04:06;;;;;;;11.02;7.30;;;12.60;99.90;;;;;;5013186;28;20038;-63
2023/08/09 01:06:44;;;;;;;11.23;6.93;;;12.70;99.90;;;;;;5013651;28;20049;-66
2023/08/09 01:09:36;;;;;;;9.82;7.43;;;12.50;99.90;;;;;;4997189;28;20450;-65
2023/08/09 01:12:07;;;;;;;14.38;8.52;;;12.50;99.90;;;;;;5013942;28;20062;-66
2023/08/09 01:14:36;;;;;;;11.55;8.13;;;12.50;99.90;;;;;;4997254;28;20073;-65
2023/08/09 01:17:06;;;;;;;9.25;7.15;;;12.50;99.90;;;;;;5013690;28;20054;-66
2023/08/09 01:19:41;;;;;;;8.50;7.05;;;12.40;99.90;;;;;;4996672;28;20076;-66
2023/08/09 01:22:15;;;;;;;9.82;7.53;;;12.50;99.90;;;;;;4995973;28;20045;-66
2023/08/09 01:24:44;;;;;;;10.48;7.50;;;12.40;99.90;;;;;;4996803;28;20054;-66
2023/08/09 01:27:12;;;;;;;11.40;8.15;;;12.50;99.90;;;;;;4979599;28;20042;-66
2023/08/09 01:29:39;;;;;;;11.15;7.90;;;12.40;99.90;;;;;;4996130;28;20090;-66
2023/08/09 01:32:06;;;;;;;9.13;8.00;;;12.40;99.90;;;;;;4979524;28;20111;-66
2023/08/09 01:34:37;;;;;;;9.70;7.88;;;12.50;99.90;;;;;;4996216;28;20064;-66
2023/08/09 01:37:15;;;;;;;10.10;7.82;;;12.40;99.90;;;;;;5012303;28;20365;-66
2023/08/09 01:39:43;;;;;;;11.45;8.30;;;12.40;99.90;;;;;;4996128;28;20052;-66
2023/08/09 01:42:11;;;;;;;9.90;7.93;;;12.30;99.90;;;;;;4995779;28;20049;-65
2023/08/09 01:44:38;;;;;;;11.90;8.75;;;12.40;99.90;;;;;;4996269;28;20050;-66
2023/08/09 01:47:05;;;;;;;12.32;8.00;;;12.30;99.90;;;;;;5012795;28;20057;-64
2023/08/09 01:49:32;;;;;;;12.15;8.43;;;12.20;99.90;;;;;;5013259;28;20446;-67
2023/08/09 01:52:00;;;;;;;11.60;8.75;;;12.20;99.90;;;;;;4995504;28;20480;-66
2023/08/09 01:54:27;;;;;;;11.45;8.70;;;12.30;99.90;;;;;;4995897;28;20053;-65
2023/08/09 01:56:55;;;;;;;16.05;9.35;;;12.20;99.90;;;;;;5012703;28;20064;-66
2023/08/09 01:59:23;;;;;;;14.93;9.45;;;12.20;99.90;;;;;;4996073;28;20049;-66
2023/08/09 02:01:49;;;;;;;24.83;9.07;;;12.20;99.90;;;;;;4995471;28;20100;-67
2023/08/09 02:04:15;;;;;;;32.78;9.90;;;12.20;99.90;;;;;;4995380;28;20046;-66
2023/08/09 02:06:44;;;;;;;50.92;10.57;;;12.20;99.90;;;;;;5012133;28;20393;-67
2023/08/09 02:09:12;;;;;;;28.73;9.93;;;12.20;99.90;;;;;;4979816;28;20489;-65
2023/08/09 02:11:52;;;;;;;21.73;9.75;;;12.20;99.90;;;;;;4997252;28;20104;-66
2023/08/09 02:14:21;;;;;;;32.17;9.40;;;12.20;99.90;;;;;;4995784;28;20136;-64
2023/08/09 02:16:47;;;;;;;23.58;9.50;;;12.20;99.90;;;;;;4995030;28;20394;-64
2023/08/09 02:19:14;;;;;;;21.50;9.65;;;12.10;99.90;;;;;;5011974;28;20086;-67
2023/08/09 02:21:42;;;;;;;22.10;10.13;;;12.10;99.90;;;;;;5011941;28;20350;-66
2023/08/09 02:24:12;;;;;;;11.23;8.77;;;12.20;99.90;;;;;;4979398;28;20049;-64
2023/08/09 02:26:39;;;;;;;18.35;8.82;;;12.10;99.90;;;;;;4978910;28;20141;-66
2023/08/09 02:29:05;;;;;;;34.05;10.02;;;12.10;99.90;;;;;;5011431;28;20057;-63
2023/08/09 02:31:33;;;;;;;63.90;11.30;;;12.10;99.90;;;;;;5012203;28;20087;-65
2023/08/09 02:34:00;;;;;;;40.47;10.02;;;12.10;99.90;;;;;;4993518;28;20372;-66
2023/08/09 02:36:26;;;;;;;46.50;11.13;;;12.20;99.90;;;;;;4992238;28;20050;-66
2023/08/09 02:38:53;;;;;;;22.88;10.15;;;12.20;99.90;;;;;;4975463;28;20050;-67
2023/08/09 02:41:20;;;;;;;55.65;11.35;;;12.10;99.90;;;;;;4975544;28;20047;-65
2023/08/09 02:43:47;;;;;;;93.43;13.40;;;12.10;99.90;;;;;;4993437;28;20057;-63
2023/08/09 02:46:14;;;;;;;92.85;12.70;;;12.10;99.90;;;;;;4994331;28;20405;-67
2023/08/09 02:48:42;;;;;;;152.93;15.50;;;12.10;99.90;;;;;;4994754;28;20458;-66
2023/08/09 02:51:09;;;;;;;131.60;13.77;;;12.10;99.90;;;;;;5011565;28;20050;-64
2023/08/09 02:54:00;;;;;;;56.13;11.75;;;12.20;99.90;;;;;;4993868;28;20458;-65
2023/08/09 02:56:26;;;;;;;42.15;11.57;;;12.20;99.90;;;;;;4994849;28;20385;-67
2023/08/09 02:58:55;;;;;;;44.72;11.75;;;12.20;99.90;;;;;;5011909;28;20054;-66
2023/08/09 03:01:23;;;;;;;62.22;11.18;;;12.20;99.90;;;;;;4978557;28;20451;-66
2023/08/09 03:03:52;;;;;;;115.65;13.15;;;12.20;99.90;;;;;;4977989;28;20054;-66
2023/08/09 03:06:22;;;;;;;44.33;10.93;;;12.20;99.90;;;;;;4994331;28;20057;-66
2023/08/09 03:08:50;;;;;;;101.00;12.55;;;12.20;99.90;;;;;;5010749;28;20137;-67
2023/08/09 03:11:25;;;;;;;98.60;12.32;;;12.30;99.90;;;;;;4993937;28;20072;-67
2023/08/09 03:13:52;;;;;;;96.93;12.73;;;12.30;99.90;;;;;;4994004;28;20056;-67
2023/08/09 03:16:18;;;;;;;198.05;16.50;;;12.10;99.90;;;;;;4993594;28;20378;-66
2023/08/09 03:18:45;;;;;;;64.15;12.25;;;12.20;99.90;;;;;;4994274;28;20061;-66
2023/08/09 03:21:13;;;;;;;63.65;11.27;;;12.10;99.90;;;;;;4993646;28;20049;-64
2023/08/09 03:23:41;;;;;;;35.22;9.57;;;12.20;99.90;;;;;;4974393;28;20046;-66
2023/08/09 03:26:08;;;;;;;52.85;10.77;;;12.20;99.90;;;;;;5006262;28;20058;-66
2023/08/09 03:28:36;;;;;;;77.90;11.10;;;12.10;99.90;;;;;;4990616;28;20406;-65
2023/08/09 03:31:06;;;;;;;78.75;12.38;;;12.20;99.90;;;;;;4990598;28;20497;-66
2023/08/09 03:33:33;;;;;;;46.30;10.43;;;12.10;99.90;;;;;;4994197;28;20061;-66
2023/08/09 03:36:01;;;;;;;40.28;10.18;;;12.20;99.90;;;;;;4993505;28;20477;-65
2023/08/09 03:38:28;;;;;;;101.32;12.75;;;12.10;99.90;;;;;;4994149;28;20481;-65
2023/08/09 03:40:55;;;;;;;74.70;11.15;;;12.20;99.90;;;;;;5011463;28;20124;-67
2023/08/09 03:43:22;;;;;;;53.15;10.27;;;12.10;99.90;;;;;;4974094;28;20423;-66
2023/08/09 03:45:48;;;;;;;60.35;10.73;;;12.10;99.90;;;;;;4990054;28;20046;-66
2023/08/09 03:48:17;;;;;;;68.93;10.98;;;12.10;99.90;;;;;;4974552;28;20050;-66
2023/08/09 03:50:44;;;;;;;67.82;10.40;;;12.10;99.90;;;;;;4990469;28;20058;-67
2023/08/09 03:53:15;;;;;;;64.95;10.07;;;12.10;99.90;;;;;;4993449;28;20444;-66
2023/08/09 03:55:42;;;;;;;104.80;11.95;;;12.00;99.90;;;;;;5009887;28;20386;-66
2023/08/09 03:58:08;;;;;;;55.55;10.50;;;12.00;99.90;;;;;;5011144;28;20046;-65
2023/08/09 04:00:36;;;;;;;33.85;8.98;;;11.90;99.90;;;;;;4977587;28;20201;-63
2023/08/09 04:03:02;;;;;;;75.18;12.05;;;12.00;99.90;;;;;;5009483;28;20462;-66
2023/08/09 04:05:29;;;;;;;62.42;9.75;;;11.90;99.90;;;;;;5010646;28;20049;-65
2023/08/09 04:07:58;;;;;;;50.33;9.50;;;11.80;99.90;;;;;;5010769;28;20086;-66
2023/08/09 04:10:25;;;;;;;137.07;13.18;;;11.90;99.90;;;;;;4993960;28;20101;-67
2023/08/09 04:12:52;;;;;;;42.80;9.57;;;11.90;99.90;;;;;;4993405;28;20046;-64
2023/08/09 04:15:21;;;;;;;46.25;10.05;;;11.90;99.90;;;;;;4992931;28;20050;-65
2023/08/09 04:17:49;;;;;;;38.47;8.82;;;11.80;99.90;;;;;;5009734;28;20065;-66
2023/08/09 04:20:16;;;;;;;51.75;9.50;;;11.90;99.90;;;;;;5010103;28;20094;-66
2023/08/09 04:22:45;;;;;;;50.22;9.38;;;11.90;99.90;;;;;;4977534;28;20064;-66
2023/08/09 04:25:39;;;;;;;90.68;10.88;;;11.90;99.90;;;;;;5009760;28;20061;-65
2023/08/09 04:28:08;;;;;;;53.92;9.40;;;11.80;99.90;;;;;;5010636;28;20104;-64
2023/08/09 04:30:35;;;;;;;54.03;9.57;;;11.90;99.90;;;;;;5026315;28;20318;-67
2023/08/09 04:33:03;;;;;;;59.05;10.00;;;11.80;99.90;;;;;;5010323;28;20049;-66
2023/08/09 04:35:31;;;;;;;42.42;9.52;;;11.90;99.90;;;;;;4992713;28;20470;-67
2023/08/09 04:38:06;;;;;;;41.75;9.68;;;11.90;99.90;;;;;;4994441;28;20054;-65
2023/08/09 04:40:34;;;;;;;48.70;9.88;;;11.80;99.90;;;;;;5010219;28;20127;-67
2023/08/09 04:43:00;;;;;;;75.32;10.77;;;11.90;99.90;;;;;;5008968;28;20099;-65
2023/08/09 04:45:27;;;;;;;97.95;11.82;;;12.00;99.90;;;;;;4976963;28;20069;-67
2023/08/09 04:47:54;;;;;;;69.32;10.38;;;12.00;99.90;;;;;;4993136;28;20049;-66
2023/08/09 04:50:21;;;;;;;50.92;9.88;;;11.90;99.90;;;;;;5009903;28;20359;-67
2023/08/09 04:52:48;;;;;;;64.88;11.10;;;12.00;99.90;;;;;;4992771;28;20128;-66
2023/08/09 04:55:22;;;;;;;58.65;10.52;;;11.90;99.90;;;;;;4992730;28;20054;-65
2023/08/09 04:57:49;;;;;;;47.95;10.52;;;12.10;99.90;;;;;;4993221;28;20054;-66
2023/08/09 05:00:28;;;;;;;67.55;10.82;;;12.00;99.90;;;;;;4995007;28;20072;-65
2023/08/09 05:02:55;;;;;;;25.08;8.52;;;12.20;99.90;;;;;;4992775;28;20133;-65
2023/08/09 05:05:22;;;;;;;63.50;9.93;;;12.20;99.90;;;;;;5009192;28;20374;-66
2023/08/09 05:07:49;;;;;;;84.75;11.00;;;12.30;99.90;;;;;;5016897;28;20045;-65
2023/08/09 05:10:15;;;;;;;141.85;13.82;;;12.30;99.90;;;;;;5009827;28;20060;-66
2023/08/09 05:12:41;;;;;;;62.80;9.80;;;12.30;99.90;;;;;;5010142;28;20108;-67
2023/08/09 05:15:10;;;;;;;73.10;10.27;;;12.30;99.90;;;;;;5028755;28;20092;-64
2023/08/09 05:17:38;;;;;;;53.92;9.13;;;12.40;99.90;;;;;;5032168;28;20049;-65
2023/08/09 05:20:05;;;;;;;44.80;9.13;;;12.50;99.90;;;;;;5012756;28;20108;-65
2023/08/09 05:22:31;;;;;;;76.38;10.77;;;12.50;99.90;;;;;;5024549;28;20046;-66
2023/08/09 05:24:58;;;;;;;69.13;10.00;;;12.50;99.90;;;;;;4995558;28;20062;-66
2023/08/09 05:27:26;;;;;;;63.85;9.93;;;12.50;99.90;;;;;;4995385;28;20472;-66
2023/08/09 05:29:54;;;;;;;74.68;10.30;;;12.70;99.90;;;;;;4996636;28;20513;-66
2023/08/09 05:32:21;;;;;;;71.20;9.90;;;12.70;99.90;;;;;;4995529;28;20052;-66
2023/08/09 05:35:02;;;;;;;36.17;9.13;;;12.70;99.90;;;;;;5011022;28;20081;-65
2023/08/09 05:37:43;;;;;;;61.72;10.35;;;12.80;99.90;;;;;;4996667;28;20063;-67
2023/08/09 05:40:12;;;;;;;35.63;9.30;;;13.00;99.90;;;;;;4996201;28;20470;-67
2023/08/09 05:42:39;;;;;;;38.13;8.90;;;13.00;99.90;;;;;;4995803;28;20037;-65
2023/08/09 05:45:09;;;;;;;35.58;9.27;;;13.00;99.90;;;;;;4995585;28;20079;-66
2023/08/09 05:47:50;;;;;;;;;;;13.20;99.90;;;;;;4997827;28;20061;-67
2023/08/09 05:50:37;;;;;;;36.22;9.75;;;13.20;99.90;;;;;;5028213;28;19925;-66
2023/08/09 05:53:09;;;;;;;42.38;9.48;;;13.30;99.90;;;;;;4989972;28;20054;-64
2023/08/09 05:55:36;;;;;;;26.52;9.82;;;13.50;99.90;;;;;;4976593;28;20068;-65
2023/08/09 05:58:04;;;;;;;23.83;9.27;;;13.50;99.90;;;;;;5003072;28;20081;-67
2023/08/09 06:00:31;;;;;;;31.38;10.18;;;13.60;99.90;;;;;;4978013;28;20046;-66
2023/08/09 06:02:59;;;;;;;22.60;8.77;;;13.80;99.90;;;;;;4995617;28;20053;-66
2023/08/09 06:05:32;;;;;;;58.25;10.77;;;13.70;99.90;;;;;;4997005;28;20086;-65
2023/08/09 06:07:59;;;;;;;21.65;9.07;;;13.80;99.90;;;;;;5012891;28;20073;-64
2023/08/09 06:10:26;;;;;;;15.50;9.02;;;13.90;99.90;;;;;;5012492;28;20054;-67
2023/08/09 06:12:53;;;;;;;16.35;9.15;;;14.10;99.90;;;;;;4994711;28;20104;-67
2023/08/09 06:15:20;;;;;;;20.73;9.10;;;14.00;99.90;;;;;;5012251;28;20045;-66
2023/08/09 06:17:46;;;;;;;20.67;9.15;;;14.20;99.90;;;;;;5011992;28;20414;-67
2023/08/09 06:20:13;;;;;;;14.35;9.02;;;14.30;99.90;;;;;;5010413;28;20287;-66
2023/08/09 06:22:42;;;;;;;14.32;9.13;;;14.40;99.90;;;;;;4994660;28;20049;-64
2023/08/09 06:25:09;;;;;;;12.10;8.93;;;14.30;99.90;;;;;;5010915;28;20049;-65
2023/08/09 06:27:36;;;;;;;14.77;9.82;;;14.60;99.90;;;;;;4994201;28;20050;-66
2023/08/09 06:30:03;;;;;;;11.60;8.95;;;14.70;99.90;;;;;;5009707;28;20575;-65
2023/08/09 06:32:30;;;;;;;11.63;8.98;;;14.70;99.90;;;;;;5012113;28;20041;-64
2023/08/09 06:34:56;;;;;;;10.45;8.90;;;14.90;99.90;;;;;;5011819;28;20454;-67
2023/08/09 06:37:23;;;;;;;11.75;9.00;;;15.30;99.90;;;;;;4995144;28;20089;-66
2023/08/09 06:39:49;;;;;;;11.07;9.27;;;15.30;99.90;;;;;;5011887;28;20042;-65
2023/08/09 06:42:16;;;;;;;12.18;8.70;;;15.50;99.90;;;;;;5011850;28;20068;-65
2023/08/09 06:44:42;;;;;;;11.57;8.15;;;15.60;99.90;;;;;;5011629;28;20271;-66
2023/08/09 06:47:10;;;;;;;11.63;9.27;;;16.10;99.90;;;;;;5012121;28;20046;-65
2023/08/09 06:49:36;;;;;;;12.45;9.45;;;16.50;99.90;;;;;;5011423;28;20050;-64
2023/08/09 06:52:03;;;;;;;10.98;9.02;;;16.50;99.90;;;;;;5006905;28;20050;-67
2023/08/09 06:54:30;;;;;;;11.65;8.85;;;16.80;99.90;;;;;;5011997;28;20061;-66
2023/08/09 06:56:59;;;;;;;10.70;8.57;;;16.80;99.90;;;;;;4995168;28;20057;-67
2023/08/09 06:59:26;;;;;;;11.07;8.65;;;17.10;99.90;;;;;;4994942;28;20063;-67
2023/08/09 07:01:52;;;;;;;12.82;9.80;;;17.20;99.90;;;;;;5011582;28;20050;-66
2023/08/09 07:04:19;;;;;;;11.23;8.68;;;17.30;99.90;;;;;;4960052;28;20069;-66
2023/08/09 07:06:46;;;;;;;11.18;9.32;;;17.30;99.90;;;;;;4992348;28;20125;-67
2023/08/09 07:09:16;;;;;;;11.90;10.60;;;17.80;99.90;;;;;;5000715;28;20042;-67
2023/08/09 07:11:42;;;;;;;10.13;8.98;;;18.00;99.90;;;;;;5012339;28;20045;-67
2023/08/09 07:14:09;;;;;;;10.52;8.85;;;18.40;99.90;;;;;;5011207;28;20112;-67
2023/08/09 07:16:35;;;;;;;10.65;9.15;;;18.50;99.90;;;;;;5011890;28;20057;-64
2023/08/09 07:19:02;;;;;;;11.07;8.30;;;18.70;99.90;;;;;;4994125;28;20057;-67
2023/08/09 07:21:29;;;;;;;9.60;7.63;;;18.90;99.90;;;;;;5027745;28;20054;-65
2023/08/09 07:23:57;;;;;;;12.75;9.02;;;19.50;99.90;;;;;;5012006;28;20050;-68
2023/08/09 07:26:25;;;;;;;10.00;8.57;;;19.80;99.90;;;;;;4995174;28;20042;-65
2023/08/09 07:28:52;;;;;;;11.48;9.63;;;20.00;99.90;;;;;;5011913;28;20061;-65
2023/08/09 07:31:20;;;;;;;9.35;8.23;;;20.10;99.90;;;;;;5012509;28;20470;-65
2023/08/09 07:33:47;;;;;;;10.57;7.93;;;20.30;99.90;;;;;;4995541;28;20054;-65
2023/08/09 07:36:14;;;;;;;8.57;7.38;;;19.70;99.90;;;;;;5013295;28;20050;-65
2023/08/09 07:38:41;;;;;;;8.45;7.55;;;19.40;99.90;;;;;;4994875;28;20049;-61
2023/08/09 07:41:09;;;;;;;9.68;8.25;;;19.20;99.90;;;;;;4995391;28;20069;-65
2023/08/09 07:43:37;;;;;;;8.52;7.63;;;18.90;99.90;;;;;;5002386;28;20442;-64
2023/08/09 07:46:06;;;;;;;9.43;7.70;;;18.60;99.90;;;;;;4975894;28;20058;-66
2023/08/09 07:48:33;;;;;;;9.68;7.82;;;18.50;99.90;;;;;;4992255;28;20104;-67
2023/08/09 07:50:59;;;;;;;9.98;7.75;;;18.40;99.90;;;;;;4992019;28;20202;-67
2023/08/09 07:53:26;;;;;;;10.15;7.82;;;18.40;99.90;;;;;;4996130;28;20466;-67
2023/08/09 07:55:53;;;;;;;9.00;7.57;;;18.50;99.90;;;;;;4992051;28;20121;-66
2023/08/09 07:58:20;;;;;;;8.88;7.55;;;18.50;99.90;;;;;;4974751;28;20328;-67
2023/08/09 08:00:46;;;;;;;9.23;8.20;;;18.60;99.90;;;;;;4991651;28;20504;-67
2023/08/09 08:03:13;;;;;;;10.20;7.63;;;18.70;99.90;;;;;;4991754;28;20053;-67
2023/08/09 08:05:40;;;;;;;9.90;7.88;;;18.80;99.90;;;;;;4974473;28;20477;-66
2023/08/09 08:08:06;;;;;;;10.48;7.88;;;19.00;99.90;;;;;;4992468;28;20042;-65
2023/08/09 08:10:34;;;;;;;9.45;8.35;;;19.00;99.90;;;;;;4991741;28;20050;-67
2023/08/09 08:13:00;;;;;;;8.60;7.35;;;19.10;99.90;;;;;;4975239;28;20054;-66
2023/08/09 08:15:27;;;;;;;9.80;7.78;;;19.10;99.90;;;;;;4975378;28;20065;-67
2023/08/09 08:17:54;;;;;;;9.63;7.38;;;19.40;99.90;;;;;;4992173;28;20058;-66
2023/08/09 08:20:22;;;;;;;7.95;6.10;;;19.40;99.90;;;;;;4991693;28;20065;-64
2023/08/09 08:22:49;;;;;;;6.88;5.05;;;19.50;99.90;;;;;;4974734;28;20374;-65
2023/08/09 08:25:19;;;;;;;6.32;5.20;;;19.30;99.90;;;;;;4975186;28;20050;-64
2023/08/09 08:27:46;;;;;;;6.82;4.63;;;19.30;99.90;;;;;;4974636;28;20050;-68
2023/08/09 08:30:16;;;;;;;5.03;4.25;;;19.30;99.90;;;;;;4991618;28;20047;-67
2023/08/09 08:32:46;;;;;;;6.43;4.82;;;19.40;99.90;;;;;;4975194;28;20450;-65
2023/08/09 08:35:20;;;;;;;6.80;4.53;;;19.50;99.90;;;;;;4975005;28;20113;-65
2023/08/09 08:37:48;;;;;;;5.60;4.32;;;19.60;99.90;;;;;;4959397;28;20165;-65
2023/08/09 08:40:20;;;;;;;8.93;5.18;;;20.00;99.90;;;;;;4991793;28;20120;-64
2023/08/09 08:42:48;;;;;;;6.40;4.90;;;19.80;99.90;;;;;;4990549;28;20438;-67
2023/08/09 08:45:19;;;;;;;6.53;4.78;;;19.80;99.90;;;;;;4975695;28;20105;-65
2023/08/09 08:47:47;;;;;;;6.65;5.63;;;19.80;99.90;;;;;;4958967;28;20054;-66
2023/08/09 08:50:18;;;;;;;5.68;4.93;;;19.50;99.90;;;;;;4975580;28;20054;-66
2023/08/09 08:52:49;;;;;;;8.25;5.20;;;19.40;99.90;;;;;;4962784;28;20042;-64
2023/08/09 08:55:15;;;;;;;4.75;2.80;;;19.50;99.90;;;;;;4978519;28;20070;-65
2023/08/09 08:57:43;;;;;;;3.30;1.73;;;19.40;99.90;;;;;;4995531;28;20054;-65
2023/08/09 09:00:15;;;;;;;2.97;1.52;;;19.50;99.90;;;;;;4977746;28;20383;-65
2023/08/09 09:02:46;;;;;;;3.22;2.03;;;19.70;99.90;;;;;;4994705;28;20057;-66
2023/08/09 09:05:14;;;;;;;3.75;1.90;;;19.80;99.90;;;;;;4994955;28;20053;-66
2023/08/09 09:07:42;;;;;;;2.50;1.45;;;20.00;99.90;;;;;;4976192;28;20165;-67
2023/08/09 09:10:15;;;;;;;3.42;1.60;;;19.90;99.90;;;;;;4994701;28;20435;-67
2023/08/09 09:12:41;;;;;;;2.05;1.52;;;19.90;99.90;;;;;;4994857;28;20046;-66
2023/08/09 09:15:09;;;;;;;2.47;1.50;;;20.00;99.90;;;;;;4995740;28;20061;-66
2023/08/09 09:17:41;;;;;;;3.60;1.60;;;20.00;99.90;;;;;;4995044;28;20061;-66
2023/08/09 09:20:15;;;;;;;3.00;1.58;;;20.20;99.90;;;;;;4982057;28;20074;-67
2023/08/09 09:22:42;;;;;;;3.42;2.13;;;20.30;99.90;;;;;;4992391;28;20130;-65
2023/08/09 09:25:14;;;;;;;2.95;2.20;;;20.40;99.90;;;;;;4975283;28;20470;-66
2023/08/09 09:27:42;;;;;;;4.18;2.30;;;20.30;99.90;;;;;;4993366;28;20458;-67
2023/08/09 09:30:12;;;;;;;2.95;1.77;;;20.30;99.90;;;;;;4994457;28;20050;-66
2023/08/09 09:32:52;;;;;;;3.22;1.70;;;20.40;99.90;;;;;;4994035;28;20129;-64
2023/08/09 09:35:21;;;;;;;2.60;1.70;;;20.30;99.90;;;;;;4979220;28;20113;-64
2023/08/09 09:37:48;;;;;;;2.67;1.60;;;20.20;99.90;;;;;;4993453;28;20053;-63
2023/08/09 09:40:34;;;;;;;4.50;1.90;;;20.20;99.90;;;;;;4994713;28;20046;-64
2023/08/09 09:43:02;;;;;;;3.10;1.67;;;20.20;99.90;;;;;;4994329;28;20046;-62
2023/08/09 09:45:30;;;;;;;2.72;1.55;;;20.50;99.90;;;;;;4994590;28;20046;-65
2023/08/09 09:48:00;;;;;;;3.45;1.95;;;20.50;99.90;;;;;;4995056;28;20058;-65
2023/08/09 09:50:30;;;;;;;2.33;1.60;;;20.70;99.90;;;;;;4994068;28;20195;-66
2023/08/09 09:52:57;;;;;;;4.65;1.80;;;20.60;99.90;;;;;;4993536;28;20065;-68
2023/08/09 09:55:26;;;;;;;3.67;1.50;;;20.60;99.90;;;;;;4994708;28;20057;-68
2023/08/09 09:57:54;;;;;;;5.22;1.50;;;20.70;99.90;;;;;;4977806;28;20069;-66
2023/08/09 10:00:25;;;;;;;3.45;1.50;;;20.90;99.90;;;;;;4993804;28;20056;-66
2023/08/09 10:02:53;;;;;;;2.40;1.42;;;20.90;99.90;;;;;;4976237;28;20406;-67
2023/08/09 10:05:22;;;;;;;2.90;1.55;;;20.60;99.90;;;;;;4994291;28;20054;-67
2023/08/09 10:07:50;;;;;;;3.22;1.40;;;20.80;99.90;;;;;;4994391;28;20050;-65
2023/08/09 10:10:27;;;;;;;2.95;1.30;;;20.80;99.90;;;;;;4978128;28;20065;-65
2023/08/09 10:12:54;;;;;;;2.45;1.48;;;20.90;99.90;;;;;;4976829;28;20047;-66
2023/08/09 10:15:29;;;;;;;2.55;1.70;;;20.80;99.90;;;;;;4993533;28;20537;-66
2023/08/09 10:18:02;;;;;;;2.92;1.80;;;20.80;99.90;;;;;;4993759;28;20112;-66
2023/08/09 10:20:31;;;;;;;2.72;1.60;;;21.00;99.90;;;;;;4993709;28;20393;-65
2023/08/09 10:22:58;;;;;;;4.15;1.70;;;20.80;99.90;;;;;;4976591;28;20113;-66
2023/08/09 10:25:45;;;;;;;2.40;1.50;;;20.80;99.90;;;;;;4995225;28;20117;-65
2023/08/09 10:28:11;;;;;;;2.85;1.60;;;21.00;99.90;;;;;;4993264;28;20054;-64
2023/08/09 10:30:45;;;;;;;4.32;1.80;;;21.10;99.90;;;;;;4992937;28;20061;-66
2023/08/09 10:33:20;;;;;;;3.13;1.60;;;21.20;99.90;;;;;;4975450;28;20094;-66
2023/08/09 10:35:54;;;;;;;4.85;1.95;;;21.10;99.90;;;;;;4961085;28;20050;-66
2023/08/09 10:38:39;;;;;;;4.25;2.38;;;21.10;99.90;;;;;;4976496;28;20054;-65
2023/08/09 10:41:11;;;;;;;3.72;1.80;;;21.00;99.90;;;;;;4993378;28;20116;-66
2023/08/09 10:43:39;;;;;;;3.13;1.90;;;21.10;99.90;;;;;;5001584;28;20057;-63
2023/08/09 10:46:20;;;;;;;3.60;1.88;;;21.20;99.90;;;;;;4979288;28;20049;-63
2023/08/09 10:48:58;;;;;;;4.35;1.88;;;21.40;99.90;;;;;;5012311;28;20408;-65
2023/08/09 10:51:25;;;;;;;3.78;2.25;;;21.40;99.90;;;;;;4995404;28;20457;-65
2023/08/09 10:54:05;;;;;;;3.20;1.80;;;21.50;99.90;;;;;;5012812;28;20049;-65
2023/08/09 10:56:47;;;;;;;2.85;1.92;;;21.40;99.90;;;;;;5011768;28;20054;-64
2023/08/09 10:59:21;;;;;;;2.83;1.60;;;21.40;99.90;;;;;;5012096;28;20446;-64
2023/08/09 11:01:50;;;;;;;3.97;1.70;;;21.30;99.90;;;;;;4979962;28;20046;-66
2023/08/09 11:04:18;;;;;;;3.08;1.70;;;21.50;99.90;;;;;;4994922;28;20431;-64
2023/08/09 11:07:06;;;;;;;3.47;1.98;;;21.50;99.90;;;;;;4995371;28;20505;-66
2023/08/09 11:09:36;;;;;;;3.70;1.90;;;21.60;99.90;;;;;;4995308;28;20473;-65
2023/08/09 11:12:06;;;;;;;3.65;1.80;;;21.70;99.90;;;;;;5011465;28;20061;-66
2023/08/09 11:14:32;;;;;;;2.72;1.58;;;21.90;99.90;;;;;;5011640;28;20452;-65
2023/08/09 11:16:59;;;;;;;2.60;1.70;;;22.10;99.90;;;;;;5013262;28;20053;-66
2023/08/09 11:19:27;;;;;;;2.75;1.73;;;21.90;99.90;;;;;;5013884;28;20050;-67
2023/08/09 11:21:56;;;;;;;2.75;2.00;;;21.70;99.90;;;;;;5012318;28;20040;-65
2023/08/09 11:24:37;;;;;;;2.65;1.60;;;21.70;99.90;;;;;;5011872;28;20438;-66
2023/08/09 11:27:04;;;;;;;4.93;1.75;;;21.80;99.90;;;;;;4995585;28;20060;-64
2023/08/09 11:29:33;;;;;;;6.15;2.17;;;21.80;99.90;;;;;;4995083;28;20049;-64
2023/08/09 11:32:01;;;;;;;4.70;2.00;;;21.80;99.90;;;;;;4995370;28;20120;-66
2023/08/09 11:34:30;;;;;;;4.53;1.80;;;21.90;99.90;;;;;;4975947;28;20046;-65
2023/08/09 11:36:57;;;;;;;5.35;2.40;;;21.90;99.90;;;;;;5008059;28;20069;-66
2023/08/09 11:39:25;;;;;;;3.85;1.80;;;22.10;99.90;;;;;;4991785;28;20054;-65
2023/08/09 11:41:53;;;;;;;5.43;2.03;;;22.00;99.90;;;;;;5012186;28;20054;-65
2023/08/09 11:44:27;;;;;;;4.38;2.00;;;22.10;99.90;;;;;;4994104;28;20057;-65
2023/08/09 11:46:56;;;;;;;3.72;2.00;;;21.90;99.90;;;;;;4976346;28;20130;-65
2023/08/09 11:49:26;;;;;;;4.45;1.90;;;21.80;99.90;;;;;;4994444;28;20117;-65
2023/08/09 11:51:54;;;;;;;3.10;1.90;;;21.90;99.90;;;;;;4995207;28;20042;-65
2023/08/09 11:54:24;;;;;;;2.42;1.50;;;22.10;99.90;;;;;;4959152;28;20157;-66
2023/08/09 11:56:51;;;;;;;3.72;1.73;;;22.20;99.90;;;;;;4991386;28;20473;-66
2023/08/09 11:59:24;;;;;;;3.85;1.95;;;22.00;99.90;;;;;;4991251;28;20470;-66
2023/08/09 12:01:53;;;;;;;4.85;1.98;;;21.90;99.90;;;;;;4975795;28;20355;-66
2023/08/09 12:04:23;;;;;;;2.25;1.80;;;21.90;99.90;;;;;;4993016;28;20038;-65
2023/08/09 12:06:56;;;;;;;5.65;2.10;;;22.00;99.90;;;;;;4994713;28;20054;-66
2023/08/09 12:09:36;;;;;;;4.15;1.60;;;22.10;99.90;;;;;;5011820;28;20046;-66
2023/08/09 12:12:16;;;;;;;3.85;1.65;;;21.90;99.90;;;;;;5012006;28;20437;-65
2023/08/09 12:14:50;;;;;;;3.47;1.83;;;21.90;99.90;;;;;;4975562;28;20465;-66
2023/08/09 12:17:39;;;;;;;4.05;2.05;;;21.90;99.90;;;;;;5007660;28;20419;-66
2023/08/09 12:20:09;;;;;;;4.47;1.90;;;22.10;99.90;;;;;;4992429;28;20444;-65
2023/08/09 12:22:37;;;;;;;4.72;1.73;;;22.10;99.90;;;;;;5011156;28;20112;-65
2023/08/09 12:25:10;;;;;;;4.50;2.08;;;22.20;99.90;;;;;;4994144;28;20462;-64
2023/08/09 12:27:39;;;;;;;5.85;1.80;;;22.20;99.90;;;;;;4994503;28;20137;-67
2023/08/09 12:30:10;;;;;;;2.88;2.10;;;22.20;99.90;;;;;;4978444;28;20092;-66
2023/08/09 12:32:38;;;;;;;3.97;1.70;;;22.20;99.90;;;;;;5010739;28;20123;-65
2023/08/09 12:35:05;;;;;;;2.78;1.63;;;22.00;99.90;;;;;;4994446;28;20090;-63
2023/08/09 12:37:32;;;;;;;3.17;1.70;;;22.00;99.90;;;;;;4995273;28;20049;-66
2023/08/09 12:40:00;;;;;;;4.30;1.75;;;21.90;99.90;;;;;;4994012;28;20054;-66
2023/08/09 12:42:26;;;;;;;3.55;1.90;;;22.00;99.90;;;;;;5011461;28;20124;-65
2023/08/09 12:44:53;;;;;;;2.90;1.67;;;22.20;99.90;;;;;;5011422;28;20161;-65
2023/08/09 12:47:19;;;;;;;5.00;2.00;;;22.00;99.90;;;;;;4994651;28;20049;-67
2023/08/09 12:49:46;;;;;;;2.78;1.55;;;21.90;99.90;;;;;;5011267;28;20140;-66